createdAt,value
2023-02-27T00:03:49.743Z,11.60
2023-02-27T00:07:09.162Z,11.20
2023-02-27T00:10:48.247Z,11.00
2023-02-27T00:14:26.378Z,13.60
2023-02-27T00:18:02.852Z,11.80
2023-02-27T00:22:02.140Z,12.30
2023-02-27T00:25:35.852Z,11.50
2023-02-27T00:29:06.307Z,11.20
2023-02-27T00:36:47.905Z,12.10
2023-02-27T00:40:19.082Z,9.30
2023-02-27T00:43:46.888Z,11.40
2023-02-27T00:47:24.280Z,12.10
2023-02-27T00:50:59.261Z,13.40
2023-02-27T00:54:34.994Z,10.70
2023-02-27T00:58:06.229Z,6.60
2023-02-27T01:01:43.356Z,12.20
2023-02-27T01:05:42.834Z,12.40
2023-02-27T01:09:18.243Z,11.40
2023-02-27T01:12:52.828Z,8.30
2023-02-27T01:16:32.144Z,11.20
2023-02-27T01:20:30.286Z,8.50
2023-02-27T01:24:14.144Z,7.20
2023-02-27T01:27:49.939Z,8.30
2023-02-27T01:31:25.393Z,5.70
2023-02-27T01:35:00.147Z,7.70
2023-02-27T01:38:43.456Z,7.70
2023-02-27T01:42:22.988Z,8.80
2023-02-27T01:46:00.604Z,7.60
2023-02-27T01:49:37.142Z,7.40
2023-02-27T01:53:18.947Z,7.60
2023-02-27T01:57:00.220Z,8.10
2023-02-27T02:00:40.945Z,9.30
2023-02-27T02:04:23.227Z,6.60
2023-02-27T02:08:00.550Z,8.50
2023-02-27T02:11:40.776Z,7.30
2023-02-27T02:15:28.698Z,8.30
2023-02-27T02:19:07.516Z,7.40
2023-02-27T02:22:57.557Z,4.90
2023-02-27T02:27:02.162Z,9.20
2023-02-27T02:30:38.234Z,6.70
2023-02-27T02:34:25.968Z,9.00
2023-02-27T02:38:06.682Z,7.30
2023-02-27T02:41:58.043Z,6.70
2023-02-27T02:45:19.009Z,9.30
2023-02-27T02:48:56.419Z,7.70
2023-02-27T02:52:37.519Z,8.70
2023-02-27T02:59:50.300Z,7.00
2023-02-27T03:07:15.209Z,8.40
2023-02-27T03:10:30.571Z,10.10
2023-02-27T03:14:07.899Z,6.70
2023-02-27T03:17:46.110Z,6.60
2023-02-27T03:21:32.164Z,8.50
2023-02-27T03:25:31.022Z,7.00
2023-02-27T03:32:33.086Z,9.10
2023-02-27T03:35:50.549Z,8.80
2023-02-27T03:40:02.629Z,9.50
2023-02-27T03:44:05.222Z,11.00
2023-02-27T03:47:46.125Z,9.40
2023-02-27T03:51:27.661Z,12.80
2023-02-27T03:55:30.221Z,17.70
2023-02-27T03:59:10.214Z,10.40
2023-02-27T04:02:51.536Z,9.40
2023-02-27T04:06:16.241Z,8.60
2023-02-27T04:09:38.712Z,8.30
2023-02-27T04:13:29.227Z,8.50
2023-02-27T04:17:33.411Z,8.00
2023-02-27T04:21:41.607Z,10.10
2023-02-27T04:25:27.886Z,7.40
2023-02-27T04:29:08.143Z,8.60
2023-02-27T04:33:12.147Z,9.00
2023-02-27T04:37:22.240Z,7.50
2023-02-27T04:40:59.046Z,8.50
2023-02-27T04:44:39.044Z,8.50
2023-02-27T04:48:15.978Z,8.00
2023-02-27T04:51:54.950Z,6.70
2023-02-27T04:55:32.010Z,7.20
2023-02-27T04:59:16.793Z,6.70
2023-02-27T05:03:00.257Z,8.20
2023-02-27T05:09:46.007Z,7.90
2023-02-27T05:13:00.128Z,8.00
2023-02-27T05:16:59.098Z,8.30
2023-02-27T05:20:36.046Z,6.40
2023-02-27T05:24:10.374Z,7.00
2023-02-27T05:27:52.989Z,7.30
2023-02-27T05:31:34.673Z,9.90
2023-02-27T05:35:16.775Z,7.90
2023-02-27T05:39:15.770Z,12.40
2023-02-27T05:43:19.999Z,6.70
2023-02-27T05:47:20.151Z,6.90
2023-02-27T05:54:19.408Z,7.40
2023-02-27T05:58:18.147Z,7.60
2023-02-27T06:01:26.900Z,7.60
2023-02-27T06:03:55.967Z,8.00
2023-02-27T06:06:25.104Z,10.20
2023-02-27T06:09:09.161Z,10.50
2023-02-27T06:11:51.861Z,8.50
2023-02-27T06:14:20.045Z,6.40
2023-02-27T06:17:02.405Z,8.10
2023-02-27T06:19:44.763Z,11.40
2023-02-27T06:22:26.823Z,11.00
2023-02-27T06:24:55.061Z,6.70
2023-02-27T06:27:37.424Z,11.70
2023-02-27T06:30:20.264Z,6.80
2023-02-27T06:33:03.203Z,9.60
2023-02-27T06:35:49.466Z,9.20
2023-02-27T06:38:31.743Z,9.10
2023-02-27T06:43:56.822Z,11.10
2023-02-27T06:46:39.415Z,12.00
2023-02-27T06:49:07.964Z,11.10
2023-02-27T06:51:50.128Z,16.40
2023-02-27T06:54:32.293Z,15.40
2023-02-27T06:59:57.065Z,12.50
2023-02-27T07:02:39.411Z,12.30
2023-02-27T07:05:21.885Z,10.50
2023-02-27T07:08:04.665Z,7.70
2023-02-27T07:10:33.139Z,7.10
2023-02-27T07:13:01.772Z,8.00
2023-02-27T07:15:30.171Z,9.60
2023-02-27T07:18:12.347Z,11.10
2023-02-27T07:20:55.461Z,9.40
2023-02-27T07:23:24.044Z,9.70
2023-02-27T07:28:35.097Z,11.80
2023-02-27T07:31:18.042Z,8.80
2023-02-27T07:34:00.254Z,11.20
2023-02-27T07:36:42.533Z,9.20
2023-02-27T07:39:24.973Z,8.20
2023-02-27T07:41:53.751Z,9.80
2023-02-27T07:44:22.550Z,9.90
2023-02-27T07:46:51.420Z,7.80
2023-02-27T07:49:20.274Z,8.30
2023-02-27T07:51:49.319Z,9.20
2023-02-27T07:54:33.234Z,7.10
2023-02-27T07:57:15.905Z,11.90
2023-02-27T07:59:44.380Z,7.00
2023-02-27T08:02:13.567Z,7.30
2023-02-27T08:04:42.349Z,10.10
2023-02-27T08:07:11.084Z,10.10
2023-02-27T08:09:40.952Z,7.90
2023-02-27T08:12:12.786Z,8.70
2023-02-27T08:14:41.162Z,6.50
2023-02-27T08:17:23.454Z,7.90
2023-02-27T08:19:52.069Z,10.00
2023-02-27T08:22:21.158Z,9.30
2023-02-27T08:24:50.178Z,16.10
2023-02-27T08:27:18.812Z,16.40
2023-02-27T08:30:01.686Z,12.50
2023-02-27T08:32:30.494Z,10.90
2023-02-27T08:35:13.918Z,11.00
2023-02-27T08:37:56.104Z,8.90
2023-02-27T08:40:24.925Z,8.80
2023-02-27T08:42:53.322Z,13.00
2023-02-27T08:45:21.988Z,10.80
2023-02-27T08:47:50.153Z,11.30
2023-02-27T08:53:00.906Z,7.20
2023-02-27T08:55:29.605Z,7.90
2023-02-27T08:57:58.325Z,6.20
2023-02-27T09:00:27.140Z,9.60
2023-02-27T09:03:09.583Z,6.10
2023-02-27T09:05:51.883Z,8.50
2023-02-27T09:08:20.580Z,7.50
2023-02-27T09:10:49.263Z,8.50
2023-02-27T09:13:18.863Z,6.60
2023-02-27T09:15:48.485Z,6.50
2023-02-27T09:18:17.269Z,6.20
2023-02-27T09:20:46.110Z,8.60
2023-02-27T09:23:14.743Z,12.20
2023-02-27T09:25:44.051Z,7.10
2023-02-27T09:28:30.156Z,5.70
2023-02-27T09:31:03.626Z,7.30
2023-02-27T09:34:17.936Z,8.90
2023-02-27T09:37:00.527Z,6.80
2023-02-27T09:39:46.399Z,8.10
2023-02-27T09:42:24.866Z,5.20
2023-02-27T09:48:30.924Z,7.60
2023-02-27T09:51:01.483Z,8.00
2023-02-27T09:53:53.263Z,7.90
2023-02-27T10:00:15.922Z,5.80
2023-02-27T10:03:12.407Z,7.10
2023-02-27T10:06:07.226Z,6.20
2023-02-27T10:09:22.028Z,5.60
2023-02-27T10:12:13.823Z,6.60
2023-02-27T10:14:59.338Z,5.10
2023-02-27T10:17:36.626Z,5.60
2023-02-27T10:20:17.507Z,4.30
2023-02-27T10:25:52.187Z,5.20
2023-02-27T10:28:23.305Z,5.70
2023-02-27T10:30:57.175Z,5.70
2023-02-27T10:33:45.070Z,7.70
2023-02-27T10:36:27.038Z,5.10
2023-02-27T10:39:09.137Z,4.40
2023-02-27T10:41:40.018Z,4.90
2023-02-27T10:44:24.854Z,5.70
2023-02-27T10:46:59.831Z,5.40
2023-02-27T10:49:33.989Z,4.60
2023-02-27T10:52:16.351Z,3.30
2023-02-27T10:58:23.635Z,6.30
2023-02-27T11:01:02.854Z,5.50
2023-02-27T11:03:41.811Z,5.90
2023-02-27T11:06:23.358Z,14.00
2023-02-27T11:09:19.407Z,12.20
2023-02-27T11:11:49.219Z,12.10
2023-02-27T11:14:33.200Z,14.70
2023-02-27T11:17:03.875Z,6.40
2023-02-27T11:19:35.852Z,10.40
2023-02-27T11:22:23.953Z,7.40
2023-02-27T11:25:22.626Z,7.70
2023-02-27T11:27:52.938Z,6.90
2023-02-27T11:30:29.844Z,7.70
2023-02-27T11:35:57.183Z,9.20
2023-02-27T11:38:40.786Z,5.40
2023-02-27T11:41:11.142Z,6.70
2023-02-27T11:43:53.173Z,7.70
2023-02-27T11:46:48.044Z,8.10
2023-02-27T11:49:45.109Z,7.10
2023-02-27T11:52:53.894Z,9.60
2023-02-27T11:55:30.687Z,10.70
2023-02-27T11:58:23.177Z,7.60
2023-02-27T12:01:03.988Z,5.60
2023-02-27T12:03:57.197Z,3.90
2023-02-27T12:06:58.708Z,6.70
2023-02-27T12:09:53.614Z,8.20
2023-02-27T12:12:46.989Z,4.70
2023-02-27T12:16:11.969Z,8.90
2023-02-27T12:18:45.311Z,8.80
2023-02-27T12:21:34.557Z,10.40
2023-02-27T12:24:30.558Z,9.00
2023-02-27T12:27:34.387Z,9.20
2023-02-27T12:30:19.121Z,5.30
2023-02-27T12:33:10.242Z,8.20
2023-02-27T12:35:43.213Z,7.70
2023-02-27T12:38:15.723Z,7.90
2023-02-27T12:40:58.683Z,8.20
2023-02-27T12:43:52.624Z,8.50
2023-02-27T12:46:56.213Z,7.40
2023-02-27T12:49:46.620Z,7.60
2023-02-27T12:55:54.738Z,7.60
2023-02-27T12:58:51.488Z,9.50
2023-02-27T13:02:02.741Z,8.00
2023-02-27T13:04:55.546Z,5.60
2023-02-27T13:08:08.585Z,10.10
2023-02-27T13:13:57.569Z,6.40
2023-02-27T13:16:42.740Z,9.10
2023-02-27T13:19:20.634Z,9.70
2023-02-27T13:25:16.719Z,9.20
2023-02-27T13:27:51.028Z,6.30
2023-02-27T13:30:38.630Z,7.80
2023-02-27T13:33:31.769Z,10.50
2023-02-27T13:36:24.174Z,6.80
2023-02-27T13:39:41.026Z,13.50
2023-02-27T13:51:36.109Z,24.60
2023-02-27T13:54:14.016Z,16.70
2023-02-27T14:00:21.585Z,15.70
2023-02-27T14:03:17.747Z,14.40
2023-02-27T14:05:49.141Z,13.30
2023-02-27T14:11:40.085Z,18.90
2023-02-27T14:14:59.127Z,8.20
2023-02-27T14:17:36.623Z,16.30
2023-02-27T14:23:24.273Z,14.40
2023-02-27T14:26:20.946Z,20.30
2023-02-27T14:29:04.127Z,14.30
2023-02-27T14:31:47.479Z,7.70
2023-02-27T14:34:30.933Z,9.10
2023-02-27T14:37:05.558Z,9.90
2023-02-27T14:39:37.645Z,9.70
2023-02-27T14:42:48.781Z,8.50
2023-02-27T14:45:31.940Z,18.40
2023-02-27T14:48:00.867Z,15.50
2023-02-27T14:50:40.754Z,11.60
2023-02-27T14:53:27.335Z,9.80
2023-02-27T14:55:59.443Z,11.90
2023-02-27T14:58:28.802Z,18.30
2023-02-27T15:01:07.685Z,11.90
2023-02-27T15:03:58.481Z,11.80
2023-02-27T15:06:48.065Z,13.00
2023-02-27T15:09:27.799Z,15.40
2023-02-27T15:12:19.130Z,19.50
2023-02-27T15:14:54.227Z,14.90
2023-02-27T15:17:42.445Z,17.80
2023-02-27T15:20:30.262Z,10.40
2023-02-27T15:25:44.749Z,12.70
2023-02-27T15:28:28.094Z,12.60
2023-02-27T15:31:20.190Z,14.50
2023-02-27T15:33:50.885Z,11.70
2023-02-27T15:36:36.031Z,13.00
2023-02-27T15:39:21.438Z,12.40
2023-02-27T15:41:57.768Z,13.70
2023-02-27T15:44:45.806Z,8.10
2023-02-27T15:47:32.073Z,9.60
2023-02-27T15:50:15.838Z,8.50
2023-02-27T15:53:00.586Z,6.70
2023-02-27T15:55:35.475Z,8.00
2023-02-27T15:58:16.234Z,8.70
2023-02-27T16:01:03.924Z,8.20
2023-02-27T16:03:45.824Z,8.60
2023-02-27T16:06:23.553Z,7.90
2023-02-27T16:08:58.340Z,8.70
2023-02-27T16:11:31.457Z,10.60
2023-02-27T16:14:01.163Z,7.60
2023-02-27T16:16:38.857Z,8.60
2023-02-27T16:19:32.919Z,9.10
2023-02-27T16:22:19.600Z,6.40
2023-02-27T16:24:49.829Z,7.60
2023-02-27T16:27:30.077Z,8.80
2023-02-27T16:32:48.340Z,8.80
2023-02-27T16:35:30.838Z,6.30
2023-02-27T16:38:02.876Z,9.10
2023-02-27T16:40:31.951Z,8.00
2023-02-27T16:43:01.559Z,7.70
2023-02-27T16:45:32.157Z,8.00
2023-02-27T16:48:01.564Z,10.50
2023-02-27T16:50:43.460Z,8.50
2023-02-27T16:53:11.799Z,13.40
2023-02-27T16:55:43.691Z,8.10
2023-02-27T16:58:17.099Z,8.40
2023-02-27T17:00:59.588Z,11.70
2023-02-27T17:03:28.462Z,8.60
2023-02-27T17:05:58.141Z,8.70
2023-02-27T17:08:26.371Z,9.70
2023-02-27T17:10:55.204Z,9.60
2023-02-27T17:13:38.187Z,11.20
2023-02-27T17:18:50.884Z,11.60
2023-02-27T17:21:34.786Z,18.30
2023-02-27T17:24:17.636Z,25.00
2023-02-27T17:26:46.065Z,25.20
2023-02-27T17:29:29.055Z,28.10
2023-02-27T17:31:58.206Z,22.90
2023-02-27T17:37:37.921Z,22.90
2023-02-27T17:40:08.578Z,30.70
2023-02-27T17:48:30.230Z,33.10
2023-02-27T17:51:14.809Z,30.80
2023-02-27T17:53:44.500Z,27.40
2023-02-27T17:56:14.282Z,28.00
2023-02-27T17:58:46.504Z,26.90
2023-02-27T18:01:21.714Z,22.70
2023-02-27T18:04:05.430Z,22.70
2023-02-27T18:06:34.041Z,17.90
2023-02-27T18:09:02.511Z,24.40
2023-02-27T18:11:44.900Z,23.70
2023-02-27T18:14:27.529Z,21.10
2023-02-27T18:16:56.206Z,19.10
2023-02-27T18:19:25.365Z,25.20
2023-02-27T18:22:09.027Z,26.50
2023-02-27T18:24:55.980Z,28.60
2023-02-27T18:27:25.265Z,33.20
2023-02-27T18:29:54.390Z,22.10
2023-02-27T18:32:23.070Z,16.10
2023-02-27T18:34:51.748Z,17.80
2023-02-27T18:37:20.500Z,16.90
2023-02-27T18:40:02.924Z,17.40
2023-02-27T18:42:32.704Z,15.00
2023-02-27T18:45:01.526Z,17.40
2023-02-27T18:47:31.178Z,17.80
2023-02-27T18:50:00.744Z,15.90
2023-02-27T18:52:31.350Z,19.00
2023-02-27T18:54:59.627Z,15.40
2023-02-27T18:57:41.874Z,15.20
2023-02-27T19:00:25.502Z,16.30
2023-02-27T19:02:57.283Z,16.40
2023-02-27T19:05:30.244Z,12.00
2023-02-27T19:08:01.277Z,14.10
2023-02-27T19:10:33.994Z,12.30
2023-02-27T19:13:07.936Z,13.50
2023-02-27T19:15:39.334Z,14.70
2023-02-27T19:20:57.472Z,13.50
2023-02-27T19:26:36.068Z,15.30
2023-02-27T19:29:08.084Z,24.50
2023-02-27T19:31:36.785Z,18.60
2023-02-27T19:34:19.282Z,19.90
2023-02-27T19:36:49.164Z,18.50
2023-02-27T19:39:31.893Z,21.10
2023-02-27T19:42:00.844Z,19.30
2023-02-27T19:44:29.587Z,15.30
2023-02-27T19:49:40.586Z,25.30
2023-02-27T19:52:10.338Z,26.60
2023-02-27T19:54:39.458Z,27.70
2023-02-27T19:57:08.856Z,25.20
2023-02-27T19:59:51.909Z,26.50
2023-02-27T20:02:21.213Z,21.60
2023-02-27T20:04:50.327Z,21.80
2023-02-27T20:07:19.822Z,15.80
2023-02-27T20:10:02.366Z,18.90
2023-02-27T20:12:44.945Z,17.00
2023-02-27T20:15:14.153Z,21.00
2023-02-27T20:17:42.710Z,20.20
2023-02-27T20:20:13.065Z,15.50
2023-02-27T20:22:45.106Z,14.50
2023-02-27T20:25:14.253Z,12.60
2023-02-27T20:27:43.167Z,11.80
2023-02-27T20:30:13.169Z,16.80
2023-02-27T20:32:41.976Z,17.60
2023-02-27T20:35:11.585Z,19.60
2023-02-27T20:37:40.526Z,16.20
2023-02-27T20:40:13.131Z,19.70
2023-02-27T20:42:42.113Z,16.40
2023-02-27T20:45:11.583Z,19.90
2023-02-27T20:47:40.600Z,26.50
2023-02-27T20:50:11.812Z,19.90
2023-02-27T20:52:40.654Z,20.00
2023-02-27T20:55:10.647Z,19.50
2023-02-27T20:57:39.531Z,16.30
2023-02-27T21:00:12.718Z,13.60
2023-02-27T21:02:41.314Z,16.80
2023-02-27T21:05:10.469Z,15.10
2023-02-27T21:07:39.268Z,16.10
2023-02-27T21:10:09.221Z,17.70
2023-02-27T21:12:38.207Z,14.80
2023-02-27T21:15:07.823Z,13.70
2023-02-27T21:17:37.034Z,18.30
2023-02-27T21:20:07.790Z,15.90
2023-02-27T21:22:36.723Z,18.60
2023-02-27T21:25:06.015Z,25.80
2023-02-27T21:27:34.606Z,26.50
2023-02-27T21:30:03.929Z,26.60
2023-02-27T21:32:32.604Z,21.80
2023-02-27T21:35:01.909Z,20.00
2023-02-27T21:37:30.481Z,18.90
2023-02-27T21:40:13.752Z,18.10
2023-02-27T21:42:43.870Z,18.90
2023-02-27T21:45:26.133Z,18.00
2023-02-27T21:47:55.055Z,19.00
2023-02-27T21:50:23.823Z,21.40
2023-02-27T21:52:52.507Z,68.00
2023-02-27T21:55:21.403Z,69.60
2023-02-27T21:57:49.897Z,134.50
2023-02-27T22:00:32.185Z,95.90
2023-02-27T22:03:00.823Z,90.40
2023-02-27T22:05:44.584Z,31.10
2023-02-27T22:08:26.784Z,59.00
2023-02-27T22:14:07.805Z,64.20
2023-02-27T22:19:48.193Z,44.70
2023-02-27T22:22:17.441Z,28.30
2023-02-27T22:24:46.095Z,32.90
2023-02-27T22:29:56.873Z,26.50
2023-02-27T22:32:41.023Z,21.60
2023-02-27T22:35:24.127Z,17.60
2023-02-27T22:38:06.306Z,14.50
2023-02-27T22:43:45.579Z,24.50
2023-02-27T22:46:51.893Z,25.80
2023-02-27T22:49:34.116Z,23.10
2023-02-27T22:52:02.612Z,30.30
2023-02-27T22:54:31.452Z,31.80
2023-02-27T22:57:13.557Z,28.80
2023-02-27T23:00:33.970Z,25.80
2023-02-27T23:04:08.863Z,33.50
2023-02-27T23:07:42.984Z,39.40
2023-02-27T23:15:13.391Z,84.50
2023-02-27T23:19:17.659Z,49.40
2023-02-27T23:22:54.884Z,33.40
2023-02-27T23:26:34.906Z,35.50
2023-02-27T23:37:27.701Z,26.70
2023-02-27T23:41:06.542Z,24.20
2023-02-27T23:44:43.999Z,28.40
2023-02-27T23:49:13.295Z,22.20
2023-02-27T23:55:42.018Z,25.00
2023-02-27T23:58:55.712Z,20.40
